Latest Coastal Weather Observations for Weipa

IDQ60701

Issued at 8:12 pm EST Friday 27 March 2015 (issued every 10 minutes, with the page automatically refreshed every 10 minutes)

About coastal observations | Map of coastal stations | Coastal observations for QLD | Marine services | Other Formats
Station Details ID: 027045 Name: WEIPA AERO Lat: -12.68 Lon: 141.92 Height: 17.96 m
Data from the previous 72 hours. | See also: Recent months at Weipa
Date/Time
EST
Temp

°C
Wind Pressure Rain
since 9am
mm
Weather Cloud Vis
km
Sea
Height
m
Swell
Dir
 
Speed
knots
Gust
knots
hPa Trend Height
m
Period
s
Dir
27/08:00pm 26.3 CALM 0 1 1012.6 - 3.0 - - 10 - - - -
27/07:30pm 26.6 S 3 3 1012.1 - 3.0 - Cloudy 10 - - - -
27/07:00pm 26.9 CALM 0 0 1011.7 - 3.0 - Cloudy 10 - - - -
27/06:30pm 27.2 W 1 2 1011.3 - 3.0 - Partly cloudy 10 - - - -
27/06:00pm 27.7 WNW 1 1 1010.7 - 3.0 - Cloudy 10 - - - -
27/05:30pm 28.2 E 2 3 1010.6 - 3.0 - Partly cloudy 10 - - - -
27/05:00pm 28.4 E 2 4 1010.2 - 3.0 - Cloudy 10 - - - -
27/04:30pm 28.7 NE 4 6 1010.4 - 3.0 - Partly cloudy 10 - - - -
27/04:00pm 28.8 NNE 4 7 1010.6 - 3.0 - Cloudy 10 - - - -
27/03:30pm 28.2 SSE 1 3 1010.8 - 3.0 - Partly cloudy 10 - - - -
27/03:00pm 26.9 E 3 5 1011.0 F 3.0 Recent precip. Mostly cloudy 30 - - - -
27/02:42pm 25.5 ESE 4 6 1011.6 - 3.0 - Partly cloudy 10 - - - -
27/02:30pm 24.6 SSW 4 9 1011.5 - 3.0 - Partly cloudy 5 - - - -
27/02:08pm 25.1 ESE 17 31 1012.0 - 0.4 - Partly cloudy 6 - - - -
27/02:00pm 29.5 E 15 31 1011.5 - 0.2 - Partly cloudy 10 - - - -
27/01:30pm 31.4 SE 4 9 1011.6 - 0.2 - Partly cloudy 10 - - - -
27/01:00pm 30.7 SSE 5 10 1012.2 - 0.2 - Partly cloudy 10 - - - -
27/12:30pm 30.7 SE 6 10 1012.9 - 0.2 - Partly cloudy 10 - - - -
27/12:00pm 30.1 ESE 7 12 1013.2 - 0.2 - Partly cloudy 10 - - - -
27/11:30am 30.6 E 8 13 1014.1 - 0.2 - Partly cloudy 10 - - - -
27/11:00am 29.9 E 7 11 1014.6 - 0.2 - Partly cloudy 10 - - - -
27/10:30am 29.3 E 7 10 1015.0 - 0.2 - - 10 - - - -
27/10:00am 28.3 E 8 11 1015.2 - 0.0 - - 10 - - - -
27/09:30am 27.5 ESE 7 9 1015.1 - 0.0 - - 10 - - - -
27/09:00am 26.6 SE 4 6 1015.0 R 0.4 Haze Mostly clear 25 - - - -
27/08:30am 25.6 SSE 3 5 1014.9 - 0.4 - - 10 - - - -
27/08:00am 24.8 SSE 3 5 1014.5 - 0.4 - - 10 - - - -
27/07:30am 23.7 ESE 2 3 1014.2 - 0.4 - - 10 - - - -
27/07:00am 22.4 CALM 0 1 1013.8 - 0.4 - - 10 - - - -
27/06:30am 22.1 CALM 0 2 1013.6 - 0.4 - - 10 - - - -
27/06:00am 22.6 E 2 3 1013.1 F 0.4 Fine Mostly clear 35 - - - -
27/05:30am 22.7 ESE 3 3 1013.5 - 0.4 - - 10 - - - -
27/05:00am 23.0 SE 2 2 1013.7 - 0.4 - Partly cloudy 10 - - - -
27/04:30am 23.0 SSE 2 3 1013.5 - 0.4 - - 10 - - - -
27/04:00am 23.3 ESE 3 4 1013.4 - 0.4 - Partly cloudy 10 - - - -
27/03:30am 23.5 SSE 2 4 1013.6 - 0.4 - - 10 - - - -
27/03:00am 23.3 ESE 2 3 1013.3 - 0.4 - - 10 - - - -
27/02:30am 23.8 ESE 3 4 1013.6 - 0.4 - - 10 - - - -
27/02:00am 24.3 E 3 4 1013.9 - 0.4 - - 10 - - - -
27/01:30am 24.5 E 3 4 1014.4 - 0.4 - - 10 - - - -
27/01:00am 24.6 ESE 3 4 1014.5 - 0.4 - Partly cloudy 10 - - - -
27/12:30am 25.1 ESE 2 3 1014.8 - 0.4 - Partly cloudy 10 - - - -
27/12:00am 25.3 SSE 2 4 1015.0 - 0.4 - - 10 - - - -
 
Date/Time
EST
Temp

°C
Wind Pressure Rain
since 9am
mm
Weather Cloud Vis
km
Sea
Height
m
Swell
Dir
 
Speed
knots
Gust
knots
hPa Trend Height
m
Period
s
Dir
26/11:30pm 25.5 SE 3 5 1015.1 - 0.4 - - 10 - - - -
26/11:00pm 25.4 ESE 3 5 1014.9 - 0.4 - - 10 - - - -
26/10:30pm 26.0 SE 2 3 1014.8 - 0.4 - - 10 - - - -
26/10:00pm 26.2 SSE 2 3 1014.5 - 0.4 - - 10 - - - -
26/09:30pm 26.6 CALM 0 1 1014.3 - 0.4 - - 10 - - - -
26/09:00pm 26.8 S 1 3 1013.6 - 0.4 - - 10 - - - -
26/08:30pm 27.0 SE 2 4 1013.4 - 0.4 - - 10 - - - -
26/08:00pm 27.4 SSW 2 4 1013.2 - 0.4 - Partly cloudy 10 - - - -
26/07:30pm 27.4 SW 2 6 1012.6 - 0.4 - Partly cloudy 10 - - - -
26/07:03pm 27.3 WSW 2 6 1012.2 - 0.4 - Partly cloudy 10 - - - -
26/07:00pm 27.3 W 2 6 1012.2 - 0.4 - Partly cloudy 10 - - - -
26/06:47pm 27.7 SSW 4 8 1012.1 - 0.4 - Partly cloudy 6 - - - -
26/06:30pm 28.4 WSW 3 6 1011.8 - 0.0 - - 10 - - - -
26/06:00pm 29.7 WSW 5 9 1011.1 - 0.0 - Partly cloudy 10 - - - -
26/05:30pm 30.5 W 4 9 1011.1 - 0.0 - - 10 - - - -
26/05:00pm 29.1 W 4 7 1010.9 - 0.0 - Partly cloudy 10 - - - -
26/04:30pm 30.7 W 4 9 1010.8 - 0.0 - Partly cloudy 10 - - - -
26/04:00pm 31.5 WSW 4 7 1010.9 - 0.0 - Partly cloudy 10 - - - -
26/03:30pm 32.3 SSE 5 8 1011.1 - 0.0 - Partly cloudy 10 - - - -
26/03:00pm 31.4 S 4 8 1011.2 F 0.0 Fine Partly cloudy 35 - - - -
26/02:30pm 31.2 SE 4 8 1011.9 - 0.0 - Partly cloudy 10 - - - -
26/02:00pm 31.2 SSE 5 9 1012.3 - 0.0 - Partly cloudy 10 - - - -
26/01:30pm 31.5 SSE 6 9 1012.8 - 0.0 - Partly cloudy 10 - - - -
26/01:00pm 30.9 SE 7 11 1013.4 - 0.0 - Mostly cloudy 10 - - - -
26/12:30pm 30.8 E 7 13 1013.9 - 0.0 - Partly cloudy 10 - - - -
26/12:00pm 30.9 E 5 9 1014.1 F 0.0 Fine Mostly cloudy 35 - - - -
26/11:30am 29.8 SE 7 16 1014.8 - 0.0 - Partly cloudy 10 - - - -
26/11:00am 29.6 ESE 4 7 1015.3 - 0.0 - Partly cloudy 10 - - - -
26/10:30am 29.0 SE 7 11 1015.5 - 0.0 - Partly cloudy 10 - - - -
26/10:00am 28.4 E 6 11 1015.7 - 0.0 - Partly cloudy 10 - - - -
26/09:30am 27.2 ESE 5 8 1015.8 - 0.0 - - 10 - - - -
26/09:00am 27.3 ESE 4 9 1015.5 R 0.2 Fine Mostly cloudy 30 - - - -
26/08:30am 26.8 E 3 5 1015.3 - 0.2 - - 10 - - - -
26/08:00am 26.0 ESE 1 2 1014.8 - 0.2 - Mostly clear 10 - - - -
26/07:30am 24.2 CALM 0 2 1014.6 - 0.2 - Mostly clear 10 - - - -
26/07:00am 23.3 CALM 0 1 1014.3 - 0.2 Fog patches Mostly clear 1 - - - -
26/06:30am 23.1 CALM 0 1 1014.0 - 0.2 Shallow fog Mostly clear 1 - - - -
26/06:00am 23.1 WNW 1 1 1013.4 R 0.2 Shallow fog Mostly clear 15 - - - -
26/05:30am 23.3 WNW 1 1 1013.2 - 0.2 - - 10 - - - -
26/05:00am 23.5 E 2 2 1012.8 - 0.2 - - 10 - - - -
26/04:30am 23.7 ENE 1 2 1012.7 - 0.2 - - 10 - - - -
26/04:00am 24.1 ENE 1 2 1012.7 - 0.2 - - 10 - - - -
26/03:30am 24.1 E 1 2 1012.7 - 0.2 - - 10 - - - -
26/03:00am 24.6 ENE 2 3 1012.6 - 0.2 - - 10 - - - -
26/02:30am 24.9 E 3 4 1013.0 - 0.2 - - 10 - - - -
26/02:00am 25.0 E 2 3 1013.2 - 0.2 - - 10 - - - -
26/01:30am 25.2 ENE 2 3 1013.2 - 0.2 - - 10 - - - -
26/01:00am 25.6 ENE 3 3 1013.3 - 0.2 - - 10 - - - -
26/12:30am 25.7 ENE 2 3 1013.6 - 0.2 - - 10 - - - -
26/12:00am 26.1 E 3 4 1013.7 - 0.2 - - 10 - - - -
 
Date/Time
EST
Temp

°C
Wind Pressure Rain
since 9am
mm
Weather Cloud Vis
km
Sea
Height
m
Swell
Dir
 
Speed
knots
Gust
knots
hPa Trend Height
m
Period
s
Dir
25/11:30pm 26.4 ENE 1 3 1014.0 - 0.2 - - 10 - - - -
25/11:00pm 26.5 CALM 0 0 1014.2 - 0.2 - - 10 - - - -
25/10:30pm 27.1 E 2 3 1014.0 - 0.2 - Partly cloudy 10 - - - -
25/10:00pm 27.2 NE 3 4 1014.2 - 0.2 - Partly cloudy 10 - - - -
25/09:30pm 27.4 S 1 2 1014.2 - 0.2 - Partly cloudy 10 - - - -
25/09:00pm 27.6 SW 1 3 1013.8 - 0.2 - - 10 - - - -
25/08:30pm 27.6 NW 2 3 1013.6 - 0.2 - Partly cloudy 10 - - - -
25/08:00pm 28.0 CALM 0 0 1013.1 - 0.2 - Partly cloudy 10 - - - -
25/07:30pm 28.2 WNW 1 3 1012.8 - 0.2 - Partly cloudy 10 - - - -
25/07:00pm 28.5 W 3 6 1012.2 - 0.2 - Partly cloudy 10 - - - -
25/06:30pm 29.8 W 4 8 1011.9 - 0.2 - Partly cloudy 10 - - - -
25/06:00pm 32.1 SSE 3 5 1011.3 - 0.2 - Mostly clear 10 - - - -
25/05:30pm 32.6 SSE 3 4 1011.0 - 0.2 - Partly cloudy 10 - - - -
25/05:00pm 32.6 SSE 4 9 1010.8 - 0.2 - - 10 - - - -
25/04:30pm 33.0 SSE 3 7 1010.7 - 0.2 - - 10 - - - -
25/04:00pm 32.9 SSE 3 7 1010.8 - 0.2 - Partly cloudy 10 - - - -
25/03:30pm 32.4 SSE 5 9 1010.8 - 0.2 - Partly cloudy 10 - - - -
25/03:00pm 32.2 SE 6 10 1010.6 F 0.2 Fine Partly cloudy 35 - - - -
25/02:30pm 31.9 ESE 6 9 1011.1 - 0.2 - Partly cloudy 10 - - - -
25/02:00pm 32.0 ESE 7 11 1011.5 - 0.2 - Partly cloudy 10 - - - -
25/01:30pm 31.9 ESE 9 15 1011.8 - 0.2 - Partly cloudy 10 - - - -
25/01:00pm 31.6 SE 9 12 1012.4 - 0.2 - Partly cloudy 10 - - - -
25/12:30pm 31.5 E 6 13 1012.7 - 0.2 - - 10 - - - -
25/12:00pm 30.9 ESE 8 13 1013.0 F 0.2 Fine Partly cloudy 35 - - - -
25/11:30am 30.5 ESE 8 13 1013.6 - 0.2 - - 10 - - - -
25/11:00am 30.3 ESE 6 11 1014.1 - 0.2 - Partly cloudy 10 - - - -
25/10:30am 29.9 E 7 13 1014.5 - 0.2 - Partly cloudy 10 - - - -
25/10:00am 28.9 ESE 8 11 1014.7 - 0.0 - Mostly clear 10 - - - -
25/09:30am 28.2 ESE 7 10 1014.8 - 0.0 - Partly cloudy 10 - - - -
25/09:00am 27.5 ESE 8 11 1014.8 R 0.4 Fine Partly cloudy 30 - - - -
25/08:30am 26.9 ESE 6 10 1014.7 - 0.4 - - 10 - - - -
25/08:00am 25.9 ESE 5 7 1014.6 - 0.4 - - 10 - - - -
25/07:30am 24.9 ESE 3 4 1014.3 - 0.4 - - 10 - - - -
25/07:00am 24.0 CALM 0 1 1014.1 - 0.4 - Mostly clear 9 - - - -
25/06:30am 23.7 ESE 2 3 1013.7 - 0.4 Shallow fog Mostly clear 1 - - - -
25/06:00am 23.8 E 1 1 1013.2 R 0.4 Shallow fog Mostly cloudy 15 - - - -
25/05:30am 23.8 ESE 1 1 1013.2 - 0.4 - - 10 - - - -
25/05:00am 24.0 CALM 0 0 1012.9 - 0.4 - - 10 - - - -
25/04:30am 24.0 CALM 0 0 1012.7 - 0.4 - - 10 - - - -
25/04:00am 24.3 CALM 0 2 1012.3 - 0.4 - - 10 - - - -
25/03:30am 24.4 ESE 1 2 1012.2 - 0.4 - - 10 - - - -
25/03:00am 24.5 ESE 1 2 1012.0 - 0.4 - - 10 - - - -
25/02:30am 24.6 ESE 2 3 1012.3 - 0.4 - - 10 - - - -
25/02:00am 24.7 ESE 3 4 1012.4 - 0.4 - - 10 - - - -
25/01:30am 24.8 ESE 3 4 1012.9 - 0.4 - - 10 - - - -
25/01:00am 25.0 E 3 4 1013.1 - 0.4 - - 10 - - - -
25/12:30am 24.9 ESE 3 4 1013.6 - 0.4 - - 10 - - - -
25/12:00am 25.1 SE 2 3 1013.8 - 0.4 - - 10 - - - -
 
Date/Time
EST
Temp

°C
Wind Pressure Rain
since 9am
mm
Weather Cloud Vis
km
Sea
Height
m
Swell
Dir
 
Speed
knots
Gust
knots
hPa Trend Height
m
Period
s
Dir
24/11:30pm 25.4 NE 2 3 1014.0 - 0.4 - Cloudy 10 - - - -
24/11:00pm 25.5 ENE 1 2 1014.3 - 0.4 - Cloudy 10 - - - -
24/10:30pm 25.4 N 1 2 1014.4 - 0.4 - Cloudy 10 - - - -
24/10:00pm 25.3 ENE 1 2 1014.4 - 0.4 - Cloudy 10 - - - -
24/09:30pm 25.3 ESE 2 2 1014.1 - 0.4 - Partly cloudy 10 - - - -
24/09:00pm 25.4 N 3 4 1013.4 - 0.4 - Cloudy 10 - - - -
24/08:30pm 25.2 N 2 3 1013.1 - 0.4 - Partly cloudy 10 - - - -

Other Formats:

Comma delimited format used in spreadsheet applications
http://www.bom.gov.au/fwo/IDQ60701/IDQ60701.94170.axf

JavaScript Object Notation format (JSON) in row-major order
http://www.bom.gov.au/fwo/IDQ60701/IDQ60701.94170.json